Time;durP1;ratioP1;P1;durP2;ratioP2;P2;SDS_P1;SDS_P2;PMS_P1;PMS_P2;Temp;Humidity;BMP_temperature;BMP_pressure;BME280_temperature;BME280_humidity;BME280_pressure;Samples;Min_cycle;Max_cycle;Signal;HPM_P1;HPM_P2
2021/06/09 00:02:21;;;;;;;28.10;25.43;;;;;;;19.80;69.45;100943.75;5081661;28;20564;-83
2021/06/09 00:04:47;;;;;;;29.07;26.30;;;;;;;19.69;69.85;100939.59;5082380;28;20511;-83
2021/06/09 00:07:13;;;;;;;29.23;26.20;;;;;;;19.63;69.97;100943.84;5082418;28;20464;-83
2021/06/09 00:09:39;;;;;;;27.47;24.57;;;;;;;19.63;70.20;100932.16;5082896;28;20445;-83
2021/06/09 00:12:06;;;;;;;27.33;24.63;;;;;;;19.66;70.07;100939.94;5082051;28;20543;-84
2021/06/09 00:14:34;;;;;;;30.43;26.40;;;;;;;19.55;70.29;100942.06;5082288;28;20507;-84
2021/06/09 00:17:00;;;;;;;27.60;24.80;;;;;;;19.65;69.36;100941.84;5081407;28;20563;-84
2021/06/09 00:19:27;;;;;;;26.90;24.13;;;;;;;19.68;69.90;100946.03;5081649;28;20548;-84
2021/06/09 00:21:54;;;;;;;27.30;24.63;;;;;;;19.69;69.87;100943.13;5081402;28;20481;-83
2021/06/09 00:24:20;;;;;;;27.77;24.77;;;;;;;19.75;69.64;100941.59;5081038;28;20488;-84
2021/06/09 00:26:47;;;;;;;27.93;25.07;;;;;;;19.67;69.84;100937.06;5080963;28;20488;-83
2021/06/09 00:29:13;;;;;;;26.77;24.17;;;;;;;19.63;70.00;100938.44;5081781;28;20456;-83
2021/06/09 00:31:41;;;;;;;26.03;23.53;;;;;;;19.67;69.80;100938.91;5080664;28;20997;-83
2021/06/09 00:34:07;;;;;;;26.17;23.37;;;;;;;19.61;69.80;100945.09;5081434;28;20521;-83
2021/06/09 00:36:34;;;;;;;27.30;24.60;;;;;;;19.61;69.63;100951.34;5081340;28;20496;-83
2021/06/09 00:39:00;;;;;;;25.40;23.00;;;;;;;19.60;69.81;100937.97;5081890;28;20440;-83
2021/06/09 00:41:26;;;;;;;25.90;23.37;;;;;;;19.64;69.15;100933.88;5080471;28;20476;-83
2021/06/09 00:43:52;;;;;;;26.60;24.03;;;;;;;19.69;69.13;100939.59;5081013;28;20555;-83
2021/06/09 00:46:19;;;;;;;26.10;23.67;;;;;;;19.68;69.56;100936.00;5081108;28;20476;-83
2021/06/09 00:48:46;;;;;;;28.33;25.43;;;;;;;19.68;69.43;100936.00;5082133;28;20475;-84
2021/06/09 00:51:16;;;;;;;27.00;24.47;;;;;;;19.69;69.35;100936.88;5080869;28;21060;-83
2021/06/09 00:53:48;;;;;;;26.20;23.60;;;;;;;19.73;69.08;100930.03;5080752;28;20961;-84
2021/06/09 00:56:15;;;;;;;26.37;23.70;;;;;;;19.75;69.50;100937.03;5080330;28;20544;-84
2021/06/09 00:58:43;;;;;;;27.10;24.23;;;;;;;19.75;68.99;100937.03;5081622;28;20436;-84
2021/06/09 01:01:10;;;;;;;25.43;22.93;;;;;;;19.74;69.13;100929.06;5079899;28;20571;-83
2021/06/09 01:03:37;;;;;;;24.40;22.10;;;;;;;19.72;69.12;100925.63;5062714;28;20480;-83
2021/06/09 01:06:05;;;;;;;24.53;22.13;;;;;;;19.78;68.92;100930.38;5080460;28;20472;-84
2021/06/09 01:08:34;;;;;;;26.27;23.60;;;;;;;19.76;69.13;100932.44;5081336;28;20453;-85
2021/06/09 01:11:01;;;;;;;26.47;23.83;;;;;;;19.71;68.94;100921.25;5080851;28;20480;-83
2021/06/09 01:13:29;;;;;;;24.53;22.13;;;;;;;19.73;69.27;100924.63;5085842;28;20530;-84
2021/06/09 01:15:55;;;;;;;26.20;23.37;;;;;;;19.65;69.21;100925.56;5084762;28;20475;-82
2021/06/09 01:18:22;;;;;;;26.37;23.67;;;;;;;19.56;69.26;100922.06;5085228;28;20532;-82
2021/06/09 01:20:49;;;;;;;25.13;22.53;;;;;;;19.50;69.94;100928.22;5084197;28;20527;-82
2021/06/09 01:23:17;;;;;;;22.33;20.20;;;;;;;19.45;70.03;100917.06;5085049;28;20486;-83
2021/06/09 01:25:44;;;;;;;26.40;23.83;;;;;;;19.43;70.07;100918.28;5084298;28;20464;-82
2021/06/09 01:28:10;;;;;;;25.23;22.80;;;;;;;19.46;69.87;100920.63;5085130;28;20447;-82
2021/06/09 01:30:38;;;;;;;23.60;21.30;;;;;;;19.44;69.61;100912.66;5084403;28;20467;-82
2021/06/09 01:33:05;;;;;;;24.73;22.27;;;;;;;19.40;69.83;100910.53;5085297;28;21064;-81
2021/06/09 01:35:31;;;;;;;24.93;22.43;;;;;;;19.43;69.55;100910.16;5084648;28;20464;-82
2021/06/09 01:37:58;;;;;;;24.83;22.37;;;;;;;19.34;69.42;100912.09;5085144;28;20467;-82
2021/06/09 01:40:27;;;;;;;25.10;22.60;;;;;;;19.31;69.45;100907.88;5083602;28;20471;-83
2021/06/09 01:42:54;;;;;;;23.93;21.50;;;;;;;19.29;70.12;100911.78;5084522;28;21532;-83
2021/06/09 01:45:22;;;;;;;25.00;22.70;;;;;;;19.20;70.21;100905.59;5084782;28;20467;-83
2021/06/09 01:47:49;;;;;;;23.73;21.30;;;;;;;19.16;70.17;100921.34;5085332;28;20469;-83
2021/06/09 01:50:16;;;;;;;24.53;22.03;;;;;;;19.15;70.20;100921.56;5084425;28;20476;-83
2021/06/09 01:52:43;;;;;;;23.47;21.27;;;;;;;19.08;70.27;100909.72;5085420;28;20529;-83
2021/06/09 01:55:12;;;;;;;25.37;23.00;;;;;;;19.02;70.39;100914.00;5084469;28;20552;-82
2021/06/09 01:57:40;;;;;;;25.67;23.07;;;;;;;19.00;70.31;100908.75;5085604;28;20444;-82
2021/06/09 02:00:08;;;;;;;26.67;24.00;;;;;;;18.96;70.46;100906.63;5084637;28;20915;-82
2021/06/09 02:02:34;;;;;;;25.73;23.13;;;;;;;18.91;70.74;100909.00;5085502;28;20448;-83
2021/06/09 02:05:00;;;;;;;26.00;23.40;;;;;;;18.90;70.77;100907.31;5084897;28;20464;-84
2021/06/09 02:07:27;;;;;;;24.57;22.17;;;;;;;18.87;70.66;100905.81;5085264;28;20492;-83
2021/06/09 02:09:53;;;;;;;26.40;23.67;;;;;;;18.84;70.94;100908.06;5085346;28;21022;-82
2021/06/09 02:12:21;;;;;;;24.87;22.53;;;;;;;18.91;70.70;100914.44;5084722;28;20505;-82
2021/06/09 02:14:48;;;;;;;27.20;22.60;;;;;;;18.88;70.74;100912.91;5083452;28;20437;-83
2021/06/09 02:17:15;;;;;;;25.90;23.20;;;;;;;18.82;70.99;100919.06;5083554;28;20641;-83
2021/06/09 02:19:41;;;;;;;26.23;23.67;;;;;;;18.88;70.92;100909.38;5084482;28;20452;-84
2021/06/09 02:22:07;;;;;;;24.10;21.90;;;;;;;18.87;71.00;100905.81;5083071;28;20836;-84
2021/06/09 02:24:33;;;;;;;25.00;22.60;;;;;;;18.86;71.24;100903.28;5083049;28;20452;-84
2021/06/09 02:26:59;;;;;;;24.70;22.10;;;;;;;18.86;70.87;100904.13;5083273;28;20472;-83
2021/06/09 02:29:26;;;;;;;24.80;22.40;;;;;;;18.83;71.29;100898.22;5083891;28;20483;-84
2021/06/09 02:31:53;;;;;;;27.57;24.67;;;;;;;18.84;71.08;100897.22;5083432;28;20500;-84
2021/06/09 02:34:21;;;;;;;28.20;24.03;;;;;;;18.75;71.05;100893.69;5083611;28;21291;-84
2021/06/09 02:36:49;;;;;;;32.27;24.80;;;;;;;18.64;71.36;100897.59;5083678;28;20486;-83
2021/06/09 02:39:15;;;;;;;26.87;24.23;;;;;;;18.57;71.97;100896.63;5083485;28;20539;-83
2021/06/09 02:41:41;;;;;;;26.67;24.10;;;;;;;18.56;71.79;100898.50;5083065;28;20476;-82
2021/06/09 02:44:07;;;;;;;27.03;24.40;;;;;;;18.54;72.08;100903.25;5082809;28;20456;-83
2021/06/09 02:46:38;;;;;;;27.20;24.53;;;;;;;18.47;72.17;100904.13;5082943;28;20499;-83
2021/06/09 02:49:07;;;;;;;27.03;24.27;;;;;;;18.41;72.17;100902.97;5083686;28;20500;-84
2021/06/09 02:51:37;;;;;;;28.47;25.60;;;;;;;18.30;72.52;100901.50;5083086;28;20596;-83
2021/06/09 02:54:08;;;;;;;27.20;24.40;;;;;;;18.29;72.37;100907.94;5082570;28;20500;-84
2021/06/09 02:56:40;;;;;;;29.10;26.20;;;;;;;18.25;72.59;100912.00;5082775;28;20496;-84
2021/06/09 02:59:21;;;;;;;28.67;25.60;;;;;;;18.21;72.64;100905.25;5083329;28;20451;-84
2021/06/09 03:01:53;;;;;;;28.60;25.70;;;;;;;18.19;72.66;100910.84;5081833;28;20480;-83
2021/06/09 03:04:22;;;;;;;28.73;25.67;;;;;;;18.08;73.11;100910.38;5082992;28;20484;-83
2021/06/09 03:06:53;;;;;;;31.77;28.50;;;;;;;18.23;72.48;100909.47;5082762;28;20504;-83
2021/06/09 03:09:26;;;;;;;30.03;26.93;;;;;;;18.14;72.94;100906.97;5083778;28;20468;-83
2021/06/09 03:11:56;;;;;;;30.23;25.97;;;;;;;18.15;72.94;100905.97;5082720;28;20476;-83
2021/06/09 03:17:13;;;;;;;30.10;26.90;;;;;;;18.11;73.20;100910.88;5082710;28;20480;-82
2021/06/09 03:19:44;;;;;;;29.37;26.40;;;;;;;18.20;73.06;100900.88;5083162;28;20433;-82
2021/06/09 03:22:21;;;;;;;29.27;26.27;;;;;;;18.18;73.18;100901.03;5085027;28;20503;-82
2021/06/09 03:24:48;;;;;;;31.70;28.30;;;;;;;18.15;73.46;100904.09;5085063;28;20456;-82
2021/06/09 03:27:19;;;;;;;31.70;26.60;;;;;;;18.23;73.37;100895.94;5086773;28;20495;-84
2021/06/09 03:29:48;;;;;;;31.73;28.50;;;;;;;18.24;73.36;100894.06;5085493;28;20452;-83
2021/06/09 03:32:18;;;;;;;29.67;26.50;;;;;;;18.33;73.06;100898.47;5085615;28;20920;-83
2021/06/09 03:34:49;;;;;;;31.97;27.27;;;;;;;18.44;72.55;100898.06;5086291;28;20468;-83
2021/06/09 03:37:19;;;;;;;28.70;25.70;;;;;;;18.49;72.23;100892.13;5085982;28;20500;-83
2021/06/09 03:39:45;;;;;;;28.67;25.23;;;;;;;18.57;72.24;100891.22;5086533;28;20476;-83
2021/06/09 03:42:15;;;;;;;30.97;27.87;;;;;;;18.68;71.91;100898.97;5084617;28;20504;-82
2021/06/09 03:44:45;;;;;;;28.03;25.23;;;;;;;18.81;71.67;100888.34;5084976;28;20448;-83
2021/06/09 03:47:12;;;;;;;27.50;24.60;;;;;;;18.93;71.23;100896.97;5084846;28;20563;-83
2021/06/09 03:49:39;;;;;;;28.63;25.57;;;;;;;19.08;70.64;100893.47;5085802;28;20456;-83
2021/06/09 03:52:09;;;;;;;25.07;22.60;;;;;;;19.16;70.46;100891.53;5084735;28;20501;-82
2021/06/09 03:54:35;;;;;;;27.83;24.30;;;;;;;19.29;70.10;100890.09;5084666;28;20448;-83
2021/06/09 03:57:02;;;;;;;25.27;22.60;;;;;;;19.41;69.62;100885.06;5083564;28;20740;-83
2021/06/09 03:59:29;;;;;;;24.57;22.17;;;;;;;19.56;68.94;100888.66;5083355;28;20490;-83
2021/06/09 04:01:56;;;;;;;24.93;22.43;;;;;;;19.79;68.03;100888.66;5081622;28;20571;-82
2021/06/09 04:04:23;;;;;;;24.63;22.20;;;;;;;20.03;67.03;100895.69;5081475;28;20460;-83
2021/06/09 04:06:52;;;;;;;26.10;23.60;;;;;;;20.24;66.02;100892.22;5082367;28;20555;-83
2021/06/09 04:09:22;;;;;;;24.33;21.93;;;;;;;20.11;66.04;100890.16;5082949;28;20459;-83
2021/06/09 04:11:51;;;;;;;24.00;21.17;;;;;;;19.86;66.95;100889.59;5082299;28;20518;-83
2021/06/09 04:14:19;;;;;;;24.30;21.90;;;;;;;19.77;67.20;100893.41;5082110;28;20458;-83
2021/06/09 04:16:46;;;;;;;22.23;20.13;;;;;;;19.79;66.95;100896.78;5082065;28;20549;-84
2021/06/09 04:19:14;;;;;;;22.33;20.13;;;;;;;19.87;66.52;100885.84;5082827;28;20493;-84
2021/06/09 04:21:40;;;;;;;25.73;21.17;;;;;;;19.85;66.22;100887.91;5082370;28;20508;-84
2021/06/09 04:24:07;;;;;;;22.27;19.73;;;;;;;19.76;66.57;100886.31;5082499;28;20506;-82
2021/06/09 04:26:37;;;;;;;23.70;21.43;;;;;;;20.27;64.95;100891.81;5082226;28;20500;-81
2021/06/09 04:29:03;;;;;;;22.33;20.00;;;;;;;20.93;63.34;100901.81;5082243;28;20440;-81
2021/06/09 04:31:29;;;;;;;21.17;19.03;;;;;;;21.42;60.63;100894.75;5082776;28;20504;-90
2021/06/09 04:33:56;;;;;;;23.70;19.80;;;;;;;21.00;61.73;100888.31;5080148;28;20460;-85
2021/06/09 04:36:23;;;;;;;20.97;18.87;;;;;;;21.19;61.07;100882.22;5077198;28;20498;-87
2021/06/09 04:38:49;;;;;;;22.33;17.30;;;;;;;21.60;59.51;100894.31;5081868;28;20528;-87
2021/06/09 04:41:16;;;;;;;20.80;18.13;;;;;;;21.36;60.05;100890.94;5080817;28;20484;-84
2021/06/09 04:43:43;;;;;;;18.80;16.93;;;;;;;21.15;60.72;100896.41;5080151;28;20468;-84
2021/06/09 04:46:09;;;;;;;20.23;18.20;;;;;;;20.91;61.78;100892.19;5079533;28;20480;-86
2021/06/09 04:48:36;;;;;;;18.30;16.50;;;;;;;20.75;62.20;100896.00;5081325;28;20457;-83
2021/06/09 04:51:02;;;;;;;19.73;17.83;;;;;;;20.64;62.46;100889.16;5080950;28;20547;-86
2021/06/09 04:53:28;;;;;;;18.73;16.97;;;;;;;20.45;63.82;100904.16;5081713;28;20463;-87
2021/06/09 04:55:55;;;;;;;20.57;18.70;;;;;;;20.43;63.58;100898.94;5080980;28;21004;-82
2021/06/09 04:58:23;;;;;;;20.17;18.30;;;;;;;20.61;62.85;100881.38;5081108;28;20439;-80
2021/06/09 05:00:52;;;;;;;20.53;18.30;;;;;;;20.32;63.70;100892.09;5081343;28;20486;-81
2021/06/09 05:03:19;;;;;;;22.80;20.43;;;;;;;19.88;65.27;100884.81;5081144;28;20471;-80
2021/06/09 05:05:49;;;;;;;19.87;17.67;;;;;;;20.42;64.28;100886.38;5080540;28;21003;-80
2021/06/09 05:08:15;;;;;;;20.77;18.60;;;;;;;20.30;64.40;100888.72;5081567;28;20459;-80
2021/06/09 05:10:42;;;;;;;19.90;17.67;;;;;;;20.38;64.68;100879.66;5080901;28;20476;-80
2021/06/09 05:13:15;;;;;;;21.83;19.63;;;;;;;20.52;64.00;100877.94;5081287;28;20543;-81
2021/06/09 05:15:43;;;;;;;19.17;17.20;;;;;;;20.78;63.14;100884.72;5080810;28;20498;-80
2021/06/09 05:18:20;;;;;;;19.67;17.77;;;;;;;20.94;62.58;100886.38;5081176;28;20440;-81
2021/06/09 05:20:46;;;;;;;19.00;17.20;;;;;;;20.58;63.35;100882.59;5078074;28;20483;-81
2021/06/09 05:23:15;;;;;;;21.03;18.93;;;;;;;20.91;62.75;100884.03;5080750;28;20437;-80
2021/06/09 05:25:42;;;;;;;20.63;17.40;;;;;;;21.04;62.07;100874.13;5079244;28;20472;-80
2021/06/09 05:28:10;;;;;;;20.30;18.10;;;;;;;21.29;60.99;100884.63;5079813;28;20475;-80
2021/06/09 05:30:37;;;;;;;19.60;16.57;;;;;;;21.66;59.63;100887.25;5064507;28;20615;-80
2021/06/09 05:33:03;;;;;;;19.40;17.60;;;;;;;21.77;58.28;100892.97;5056653;28;20481;-81
2021/06/09 05:35:32;;;;;;;19.47;17.37;;;;;;;22.13;57.74;100891.09;5059593;28;20503;-81
2021/06/09 05:37:59;;;;;;;20.37;18.37;;;;;;;22.88;55.92;100883.88;5061040;28;20472;-79
2021/06/09 05:40:26;;;;;;;20.53;18.53;;;;;;;24.28;51.70;100887.63;5059509;28;20532;-79
2021/06/09 05:42:52;;;;;;;16.63;15.17;;;;;;;24.58;50.66;100887.94;5061084;28;20465;-82
2021/06/09 05:45:25;;;;;;;16.97;15.27;;;;;;;25.61;48.28;100888.75;5060278;28;20993;-82
2021/06/09 05:47:52;;;;;;;16.67;15.07;;;;;;;26.58;45.72;100894.44;5059515;28;20455;-81
2021/06/09 05:50:19;;;;;;;16.33;14.83;;;;;;;27.98;42.63;100883.19;5059513;28;20477;-81
2021/06/09 05:52:48;;;;;;;15.67;14.20;;;;;;;28.00;42.06;100889.25;5061289;28;20455;-81
2021/06/09 05:55:15;;;;;;;15.40;14.00;;;;;;;27.69;43.08;100884.94;5057522;28;20911;-81
2021/06/09 05:57:42;;;;;;;17.67;14.57;;;;;;;28.73;41.44;100885.03;5054892;28;20427;-82
2021/06/09 06:00:10;;;;;;;14.97;13.53;;;;;;;30.41;37.18;100888.00;5044034;28;20505;-81
2021/06/09 06:02:38;;;;;;;16.07;13.57;;;;;;;31.21;35.90;100884.69;5049564;28;20476;-81
2021/06/09 06:05:05;;;;;;;14.60;12.10;;;;;;;31.94;34.28;100880.50;5063239;28;20479;-81
2021/06/09 06:07:33;;;;;;;14.87;13.10;;;;;;;33.42;31.66;100879.28;5059198;28;20499;-81
2021/06/09 06:10:00;;;;;;;19.33;14.33;;;;;;;33.47;30.83;100880.13;5054528;28;20485;-81
2021/06/09 06:12:27;;;;;;;14.27;13.13;;;;;;;32.97;32.11;100881.75;5069690;28;20504;-81
2021/06/09 06:14:53;;;;;;;14.90;13.37;;;;;;;34.31;29.93;100879.66;5077379;28;20481;-81
2021/06/09 06:17:20;;;;;;;21.53;19.43;;;;;;;33.36;29.99;100882.03;5071751;28;20483;-81
2021/06/09 06:19:49;;;;;;;22.90;20.67;;;;;;;32.84;31.65;100877.56;5080146;28;20517;-81
2021/06/09 06:22:16;;;;;;;22.03;19.40;;;;;;;33.14;30.49;100879.59;5083420;28;20828;-81
2021/06/09 06:24:44;;;;;;;23.03;20.67;;;;;;;33.19;30.78;100884.28;5082175;28;20494;-81
2021/06/09 06:27:12;;;;;;;16.87;15.37;;;;;;;33.86;30.38;100884.22;5083607;28;20472;-82
2021/06/09 06:29:39;;;;;;;18.57;16.77;;;;;;;34.50;29.08;100889.00;5083375;28;20467;-82
2021/06/09 06:32:07;;;;;;;22.37;20.27;;;;;;;34.98;27.76;100888.44;5080650;28;20503;-82
2021/06/09 06:34:34;;;;;;;21.20;19.20;;;;;;;34.08;29.65;100889.41;5083196;28;20472;-82
2021/06/09 06:37:01;;;;;;;21.60;19.50;;;;;;;34.26;29.39;100896.34;5083102;28;20479;-82
2021/06/09 06:39:28;;;;;;;24.40;22.10;;;;;;;31.94;32.91;100891.56;5082158;28;20444;-82
2021/06/09 06:41:54;;;;;;;23.57;21.07;;;;;;;33.33;30.68;100893.72;5078410;28;20480;-81
2021/06/09 06:44:22;;;;;;;24.13;21.27;;;;;;;32.38;32.49;100888.50;5074542;28;20445;-82
2021/06/09 06:46:49;;;;;;;24.77;21.97;;;;;;;33.53;30.04;100889.25;5070986;28;20464;-81
2021/06/09 06:49:16;;;;;;;21.63;19.43;;;;;;;34.45;29.06;100894.56;5076959;28;20948;-81
2021/06/09 06:51:43;;;;;;;21.80;19.70;;;;;;;34.22;30.17;100886.91;5080566;28;20476;-82
2021/06/09 06:54:10;;;;;;;21.60;19.50;;;;;;;35.41;27.28;100890.63;5079409;28;20452;-82
2021/06/09 06:56:36;;;;;;;23.40;20.97;;;;;;;34.26;29.01;100883.28;5080825;28;20465;-82
2021/06/09 06:59:02;;;;;;;24.03;21.43;;;;;;;34.64;28.78;100882.81;5081840;28;20449;-80
2021/06/09 07:01:32;;;;;;;23.10;20.97;;;;;;;35.26;27.76;100889.66;5080436;28;20484;-79
2021/06/09 07:03:58;;;;;;;23.07;20.80;;;;;;;35.81;26.68;100891.34;5074109;28;20433;-79
2021/06/09 07:06:25;;;;;;;22.83;20.53;;;;;;;35.25;27.60;100890.75;5081654;28;20479;-80
2021/06/09 07:08:51;;;;;;;24.03;21.63;;;;;;;35.29;28.11;100898.50;5080842;28;20433;-78
2021/06/09 07:11:17;;;;;;;22.83;20.73;;;;;;;35.51;26.75;100898.03;5081264;28;20465;-80
2021/06/09 07:13:45;;;;;;;23.80;21.50;;;;;;;34.80;28.55;100894.69;5081837;28;20452;-80
2021/06/09 07:16:11;;;;;;;24.53;22.27;;;;;;;35.63;26.84;100887.34;5079984;28;20488;-79
2021/06/09 07:18:43;;;;;;;24.50;22.10;;;;;;;36.13;27.22;100885.16;5081639;28;20445;-79
2021/06/09 07:21:10;;;;;;;25.50;22.93;;;;;;;35.05;28.40;100894.50;5075543;28;20503;-79
2021/06/09 07:23:36;;;;;;;24.03;21.73;;;;;;;35.98;27.54;100891.72;5078248;28;20457;-79
2021/06/09 07:26:06;;;;;;;26.53;23.73;;;;;;;35.99;27.20;100889.78;5079961;28;20477;-79
2021/06/09 07:28:34;;;;;;;24.47;21.70;;;;;;;36.57;26.40;100894.34;5081871;28;20555;-80
2021/06/09 07:31:01;;;;;;;23.67;21.37;;;;;;;35.70;26.60;100878.66;5080216;28;20473;-81
2021/06/09 07:33:27;;;;;;;25.83;23.03;;;;;;;34.77;28.59;100890.53;5075098;28;20487;-81
2021/06/09 07:35:56;;;;;;;25.93;23.33;;;;;;;34.81;28.38;100890.81;5081697;28;20514;-81
2021/06/09 07:38:27;;;;;;;26.13;23.60;;;;;;;34.16;29.33;100888.84;5063860;28;20430;-80
2021/06/09 07:40:58;;;;;;;25.27;22.57;;;;;;;34.61;29.19;100886.16;5060513;28;20503;-81
2021/06/09 07:43:26;;;;;;;24.67;22.37;;;;;;;33.79;30.78;100890.06;5062883;28;20457;-81
2021/06/09 07:45:53;;;;;;;22.60;20.60;;;;;;;35.34;28.76;100892.91;5066462;28;20472;-80
2021/06/09 07:48:21;;;;;;;23.87;20.17;;;;;;;35.88;27.46;100894.59;5081902;28;20439;-81
2021/06/09 07:50:49;;;;;;;23.80;21.40;;;;;;;35.44;28.03;100890.03;5080937;28;20487;-81
2021/06/09 07:53:18;;;;;;;24.03;21.60;;;;;;;34.98;28.50;100893.16;5082075;28;20455;-81
2021/06/09 07:55:47;;;;;;;22.50;20.20;;;;;;;34.68;28.67;100901.38;5087529;28;20480;-81
2021/06/09 07:58:15;;;;;;;20.23;18.23;;;;;;;34.78;28.84;100896.94;5082209;28;20921;-81
2021/06/09 08:00:42;;;;;;;20.47;18.37;;;;;;;34.00;30.46;100890.03;5080551;28;20557;-81
2021/06/09 08:03:09;;;;;;;21.83;19.53;;;;;;;33.38;30.89;100898.41;5079630;28;20921;-80
2021/06/09 08:05:37;;;;;;;22.80;20.50;;;;;;;31.96;34.03;100890.22;5080371;28;20469;-80
2021/06/09 08:08:04;;;;;;;21.27;19.07;;;;;;;32.94;32.91;100887.84;5080918;28;20444;-80
2021/06/09 08:10:32;;;;;;;20.87;18.87;;;;;;;33.19;31.28;100896.22;5073987;28;20468;-81
2021/06/09 08:12:58;;;;;;;21.50;19.50;;;;;;;32.51;32.43;100890.75;5061254;28;20448;-80
2021/06/09 08:15:25;;;;;;;23.07;20.87;;;;;;;31.17;35.28;100902.88;5059693;28;20836;-80
2021/06/09 08:17:52;;;;;;;23.33;20.90;;;;;;;30.14;38.14;100896.16;5060373;28;20441;-80
2021/06/09 08:20:20;;;;;;;24.80;22.20;;;;;;;29.39;38.97;100887.31;5065010;28;20448;-80
2021/06/09 08:22:46;;;;;;;24.07;21.57;;;;;;;29.46;39.71;100889.88;5076702;28;20482;-80
2021/06/09 08:25:14;;;;;;;23.20;20.90;;;;;;;29.10;39.42;100883.78;5058652;28;20448;-80
2021/06/09 08:27:42;;;;;;;24.20;21.80;;;;;;;28.03;42.07;100894.28;5060624;28;20456;-80
2021/06/09 08:30:09;;;;;;;23.13;20.87;;;;;;;28.06;40.94;100891.06;5059652;28;20464;-80
2021/06/09 08:32:36;;;;;;;21.43;19.30;;;;;;;28.61;40.68;100894.41;5061272;28;20449;-80
2021/06/09 08:35:02;;;;;;;20.70;18.60;;;;;;;29.15;39.09;100881.09;5060923;28;20452;-80
2021/06/09 08:37:28;;;;;;;19.97;18.00;;;;;;;29.34;38.45;100884.50;5059953;28;20469;-81
2021/06/09 08:39:55;;;;;;;22.03;19.87;;;;;;;28.74;40.18;100889.44;5059302;28;20430;-80
2021/06/09 08:42:23;;;;;;;23.30;20.37;;;;;;;28.81;39.30;100889.31;5059950;28;20488;-80
2021/06/09 08:44:52;;;;;;;19.23;17.43;;;;;;;28.97;38.15;100886.84;5064257;28;20476;-80
2021/06/09 08:47:18;;;;;;;17.90;16.03;;;;;;;28.86;38.38;100897.66;5075690;28;20481;-80
2021/06/09 08:49:45;;;;;;;18.63;16.73;;;;;;;29.13;37.39;100891.53;5060256;28;20492;-80
2021/06/09 08:52:13;;;;;;;18.80;16.87;;;;;;;29.68;37.77;100893.53;5059631;28;20472;-80
2021/06/09 08:54:42;;;;;;;26.13;18.93;;;;;;;29.62;37.06;100889.06;5063885;28;20476;-80
2021/06/09 08:57:09;;;;;;;19.53;17.63;;;;;;;29.83;37.46;100892.16;5078835;28;21058;-80
2021/06/09 08:59:37;;;;;;;20.13;18.03;;;;;;;29.87;37.67;100898.81;5078556;28;20970;-80
2021/06/09 09:02:05;;;;;;;25.63;20.10;;;;;;;29.98;36.34;100895.13;5078178;28;20488;-81
2021/06/09 09:04:32;;;;;;;21.93;19.73;;;;;;;29.62;37.25;100897.31;5080273;28;20449;-80
2021/06/09 09:06:58;;;;;;;21.17;18.90;;;;;;;29.62;37.04;100893.75;5078383;28;21012;-81
2021/06/09 09:09:24;;;;;;;20.77;18.77;;;;;;;29.47;37.12;100895.16;5075576;28;20449;-80
2021/06/09 09:11:50;;;;;;;20.83;18.07;;;;;;;29.81;36.84;100888.81;5060477;28;20473;-80
2021/06/09 09:14:18;;;;;;;19.77;16.77;;;;;;;29.95;36.60;100903.09;5079972;28;20506;-80
2021/06/09 09:17:07;;;;;;;18.73;16.93;;;;;;;30.01;35.76;100902.03;5062462;28;20477;-80
2021/06/09 09:19:36;;;;;;;21.07;19.00;;;;;;;29.71;36.97;100902.41;5060198;28;20472;-81
2021/06/09 09:22:04;;;;;;;21.67;19.50;;;;;;;30.09;35.04;100906.31;5064958;28;20503;-80
2021/06/09 09:24:45;;;;;;;18.77;16.87;;;;;;;30.14;36.08;100906.38;5073683;28;20446;-81
2021/06/09 09:27:15;;;;;;;20.70;18.60;;;;;;;30.23;35.59;100902.91;5059400;28;20523;-80
2021/06/09 09:29:58;;;;;;;22.50;20.03;;;;;;;29.77;36.34;100906.94;5061310;28;20456;-80
2021/06/09 09:32:26;;;;;;;22.87;19.07;;;;;;;29.74;36.24;100904.66;5076461;28;20479;-80
2021/06/09 09:34:52;;;;;;;18.73;16.73;;;;;;;29.28;36.75;100904.75;5083324;28;20464;-80
2021/06/09 09:37:20;;;;;;;19.17;17.30;;;;;;;29.08;38.92;100902.47;5081266;28;20492;-80
2021/06/09 09:39:48;;;;;;;18.90;16.20;;;;;;;28.99;38.48;100903.94;5065274;28;20441;-80
2021/06/09 09:42:30;;;;;;;19.67;17.60;;;;;;;28.52;38.63;100907.69;5063096;28;20481;-80
2021/06/09 09:45:13;;;;;;;21.03;18.70;;;;;;;28.88;37.99;100903.75;5062736;28;20515;-82
2021/06/09 09:47:41;;;;;;;22.20;20.00;;;;;;;28.83;36.83;100913.81;5043911;28;20521;-81
2021/06/09 09:50:08;;;;;;;18.03;16.33;;;;;;;28.99;38.12;100910.28;5043456;28;20496;-80
2021/06/09 09:52:47;;;;;;;19.47;17.67;;;;;;;29.23;37.79;100912.94;5063821;28;20829;-80
2021/06/09 09:55:13;;;;;;;22.33;19.57;;;;;;;28.86;37.93;100918.84;5072001;28;20562;-80
2021/06/09 09:57:39;;;;;;;33.10;21.30;;;;;;;28.55;39.37;100918.22;5076270;28;20460;-80
2021/06/09 10:00:07;;;;;;;21.37;18.77;;;;;;;29.14;37.91;100908.88;5076647;28;20476;-80
2021/06/09 10:02:33;;;;;;;21.20;19.00;;;;;;;28.90;38.18;100920.88;5069117;28;20480;-81
2021/06/09 10:05:09;;;;;;;25.23;19.57;;;;;;;29.37;37.60;100911.50;5062993;28;20802;-80
2021/06/09 10:07:36;;;;;;;20.03;17.93;;;;;;;28.95;38.96;100911.84;5062902;28;20501;-80
2021/06/09 10:10:03;;;;;;;21.63;19.00;;;;;;;28.13;40.20;100912.94;5061584;28;20925;-80
2021/06/09 10:12:29;;;;;;;20.47;18.30;;;;;;;28.06;40.54;100915.81;5086003;28;20452;-80
2021/06/09 10:14:56;;;;;;;22.43;18.10;;;;;;;27.74;41.25;100921.66;5069477;28;21146;-80
2021/06/09 10:17:23;;;;;;;21.13;18.77;;;;;;;27.95;40.83;100919.38;5067337;28;20533;-80
2021/06/09 10:19:53;;;;;;;21.13;19.03;;;;;;;27.88;40.35;100918.63;5082610;28;20437;-80
2021/06/09 10:22:24;;;;;;;23.87;21.37;;;;;;;27.27;41.01;100906.97;5081891;28;21041;-80
2021/06/09 10:24:54;;;;;;;23.63;18.67;;;;;;;28.08;39.52;100910.06;5080861;28;20810;-80
2021/06/09 10:27:32;;;;;;;21.03;19.10;;;;;;;28.56;39.00;100908.91;5082815;28;20483;-80
2021/06/09 10:29:59;;;;;;;19.13;17.23;;;;;;;29.89;36.33;100909.59;5081895;28;20535;-81
2021/06/09 10:32:27;;;;;;;19.77;17.70;;;;;;;31.39;33.45;100911.09;5078668;28;20469;-80
2021/06/09 10:34:53;;;;;;;20.10;18.10;;;;;;;32.02;31.87;100904.91;5082050;28;20498;-81
2021/06/09 10:37:20;;;;;;;18.60;16.60;;;;;;;31.67;32.22;100914.66;5082121;28;20512;-80
2021/06/09 10:39:47;;;;;;;19.50;17.30;;;;;;;30.53;34.90;100909.09;5081478;28;20479;-80
2021/06/09 10:42:15;;;;;;;18.40;16.57;;;;;;;30.00;36.67;100911.44;5080974;28;20538;-80
2021/06/09 10:44:45;;;;;;;19.53;17.40;;;;;;;29.75;34.53;100906.31;5083179;28;21234;-81
2021/06/09 10:47:13;;;;;;;18.33;16.33;;;;;;;29.87;35.86;100909.03;5082304;28;20482;-81
2021/06/09 10:49:41;;;;;;;17.37;15.77;;;;;;;30.57;33.67;100902.81;5082832;28;20452;-81
2021/06/09 10:52:08;;;;;;;17.60;15.90;;;;;;;31.28;32.72;100892.75;5068281;28;20924;-81
2021/06/09 10:54:35;;;;;;;17.63;15.83;;;;;;;31.25;33.23;100896.88;5067087;28;20464;-81
2021/06/09 10:57:02;;;;;;;15.27;13.83;;;;;;;31.79;31.92;100892.34;5082814;28;20476;-81
2021/06/09 10:59:31;;;;;;;15.20;13.90;;;;;;;30.82;33.52;100892.31;5078443;28;20743;-81
2021/06/09 11:02:00;;;;;;;18.13;16.50;;;;;;;29.84;34.31;100888.28;5080488;28;20484;-81
2021/06/09 11:04:27;;;;;;;17.33;15.70;;;;;;;30.86;32.06;100899.78;5082613;28;20937;-81
2021/06/09 11:06:55;;;;;;;19.53;17.73;;;;;;;30.01;33.99;100886.31;5087558;28;20513;-81
2021/06/09 11:09:24;;;;;;;17.00;15.40;;;;;;;30.04;35.10;100896.84;5090043;28;20457;-81
2021/06/09 11:12:19;;;;;;;17.70;15.90;;;;;;;30.77;34.65;100896.66;5062536;28;20532;-81
2021/06/09 11:14:48;;;;;;;16.87;15.10;;;;;;;31.94;31.83;100883.28;5061520;28;20958;-81
2021/06/09 11:17:14;;;;;;;14.87;13.57;;;;;;;32.46;30.24;100887.97;5077045;28;20465;-81